createdAt,value
2022-11-28T00:00:11.027Z,470.00
2022-11-28T00:00:41.087Z,467.00
2022-11-28T00:01:11.145Z,468.00
2022-11-28T00:01:41.188Z,467.00
2022-11-28T00:02:11.346Z,467.00
2022-11-28T00:02:41.405Z,466.00
2022-11-28T00:03:11.525Z,467.00
2022-11-28T00:03:41.505Z,467.00
2022-11-28T00:04:11.436Z,466.00
2022-11-28T00:04:42.031Z,464.00
2022-11-28T00:05:11.565Z,462.00
2022-11-28T00:05:46.918Z,466.00
2022-11-28T00:06:11.692Z,466.00
2022-11-28T00:06:41.695Z,465.00
2022-11-28T00:07:11.939Z,465.00
2022-11-28T00:07:41.907Z,464.00
2022-11-28T00:08:11.929Z,463.00
2022-11-28T00:08:41.951Z,462.00
2022-11-28T00:09:11.934Z,462.00
2022-11-28T00:09:41.943Z,461.00
2022-11-28T00:10:11.962Z,464.00
2022-11-28T00:10:41.970Z,462.00
2022-11-28T00:11:11.982Z,463.00
2022-11-28T00:11:41.979Z,464.00
2022-11-28T00:12:12.020Z,465.00
2022-11-28T00:12:42.075Z,465.00
2022-11-28T00:13:12.125Z,466.00
2022-11-28T00:13:42.182Z,466.00
2022-11-28T00:14:12.240Z,465.00
2022-11-28T00:14:42.538Z,465.00
2022-11-28T00:15:12.279Z,465.00
2022-11-28T00:15:42.393Z,465.00
2022-11-28T00:16:12.413Z,466.00
2022-11-28T00:16:42.348Z,466.00
2022-11-28T00:17:12.383Z,464.00
2022-11-28T00:17:42.431Z,465.00
2022-11-28T00:18:12.485Z,466.00
2022-11-28T00:18:42.545Z,464.00
2022-11-28T00:19:12.608Z,465.00
2022-11-28T00:19:42.649Z,466.00
2022-11-28T00:20:12.823Z,468.00
2022-11-28T00:20:42.760Z,465.00
2022-11-28T00:21:12.807Z,467.00
2022-11-28T00:21:42.877Z,468.00
2022-11-28T00:22:12.913Z,467.00
2022-11-28T00:22:42.971Z,465.00
2022-11-28T00:23:13.022Z,461.00
2022-11-28T00:23:43.077Z,462.00
2022-11-28T00:24:13.132Z,464.00
2022-11-28T00:24:43.371Z,464.00
2022-11-28T00:25:13.251Z,464.00
2022-11-28T00:25:43.307Z,462.00
2022-11-28T00:26:13.360Z,461.00
2022-11-28T00:26:43.418Z,459.00
2022-11-28T00:27:13.477Z,461.00
2022-11-28T00:27:43.517Z,461.00
2022-11-28T00:28:13.572Z,462.00
2022-11-28T00:28:43.626Z,463.00
2022-11-28T00:29:13.670Z,464.00
2022-11-28T00:29:43.724Z,461.00
2022-11-28T00:30:13.780Z,462.00
2022-11-28T00:30:43.825Z,461.00
2022-11-28T00:31:13.965Z,460.00
2022-11-28T00:31:44.277Z,462.00
2022-11-28T00:32:14.037Z,462.00
2022-11-28T00:32:43.979Z,462.00
2022-11-28T00:33:14.026Z,463.00
2022-11-28T00:33:44.085Z,464.00
2022-11-28T00:34:14.125Z,463.00
2022-11-28T00:34:44.387Z,462.00
2022-11-28T00:35:14.269Z,463.00
2022-11-28T00:35:44.455Z,463.00
2022-11-28T00:36:14.385Z,464.00
2022-11-28T00:36:44.405Z,463.00
2022-11-28T00:37:14.455Z,462.00
2022-11-28T00:37:44.524Z,463.00
2022-11-28T00:38:14.580Z,464.00
2022-11-28T00:38:44.619Z,466.00
2022-11-28T00:39:14.671Z,464.00
2022-11-28T00:39:44.723Z,464.00
2022-11-28T00:40:14.775Z,464.00
2022-11-28T00:40:44.832Z,464.00
2022-11-28T00:41:14.891Z,464.00
2022-11-28T00:41:44.951Z,466.00
2022-11-28T00:42:15.011Z,464.00
2022-11-28T00:42:45.093Z,466.00
2022-11-28T00:43:15.159Z,468.00
2022-11-28T00:43:45.211Z,469.00
2022-11-28T00:44:15.286Z,468.00
2022-11-28T00:44:45.381Z,468.00
2022-11-28T00:45:15.484Z,469.00
2022-11-28T00:45:45.567Z,470.00
2022-11-28T00:46:15.606Z,470.00
2022-11-28T00:46:45.594Z,470.00
2022-11-28T00:47:15.659Z,468.00
2022-11-28T00:47:45.748Z,467.00
2022-11-28T00:48:15.831Z,467.00
2022-11-28T00:48:45.910Z,466.00
2022-11-28T00:49:15.957Z,465.00
2022-11-28T00:49:46.033Z,465.00
2022-11-28T00:50:16.094Z,466.00
2022-11-28T00:50:46.141Z,464.00
2022-11-28T00:51:16.307Z,463.00
2022-11-28T00:51:46.243Z,462.00
2022-11-28T00:52:16.289Z,459.00
2022-11-28T00:52:46.349Z,460.00
2022-11-28T00:53:16.407Z,460.00
2022-11-28T00:53:46.456Z,460.00
2022-11-28T00:54:16.512Z,460.00
2022-11-28T00:54:46.559Z,460.00
2022-11-28T00:55:16.615Z,460.00
2022-11-28T00:55:46.658Z,460.00
2022-11-28T00:56:16.706Z,460.00
2022-11-28T00:56:46.876Z,463.00
2022-11-28T00:57:16.813Z,462.00
2022-11-28T00:57:46.869Z,463.00
2022-11-28T00:58:16.929Z,463.00
2022-11-28T00:58:46.994Z,463.00
2022-11-28T00:59:17.038Z,465.00
2022-11-28T00:59:47.076Z,463.00
2022-11-28T01:00:17.122Z,464.00
2022-11-28T01:00:47.208Z,464.00
2022-11-28T01:01:17.371Z,467.00
2022-11-28T01:01:47.432Z,468.00
2022-11-28T01:02:17.445Z,469.00
2022-11-28T01:02:47.486Z,469.00
2022-11-28T01:03:17.406Z,468.00
2022-11-28T01:03:47.412Z,468.00
2022-11-28T01:04:17.452Z,468.00
2022-11-28T01:04:47.413Z,467.00
2022-11-28T01:05:17.417Z,468.00
2022-11-28T01:05:47.430Z,467.00
2022-11-28T01:06:17.440Z,466.00
2022-11-28T01:06:47.562Z,467.00
2022-11-28T01:07:17.573Z,467.00
2022-11-28T01:07:47.687Z,466.00
2022-11-28T01:08:17.614Z,465.00
2022-11-28T01:08:47.615Z,465.00
2022-11-28T01:09:17.627Z,465.00
2022-11-28T01:09:47.628Z,466.00
2022-11-28T01:10:17.632Z,468.00
2022-11-28T01:10:47.644Z,470.00
2022-11-28T01:11:17.657Z,470.00
2022-11-28T01:11:47.667Z,471.00
2022-11-28T01:12:17.704Z,472.00
2022-11-28T01:12:47.879Z,470.00
2022-11-28T01:13:17.783Z,471.00
2022-11-28T01:13:47.843Z,472.00
2022-11-28T01:14:17.904Z,470.00
2022-11-28T01:14:47.952Z,473.00
2022-11-28T01:15:17.998Z,472.00
2022-11-28T01:15:48.151Z,473.00
2022-11-28T01:16:18.198Z,473.00
2022-11-28T01:16:48.240Z,472.00
2022-11-28T01:17:18.175Z,472.00
2022-11-28T01:17:48.232Z,472.00
2022-11-28T01:18:18.282Z,472.00
2022-11-28T01:18:48.330Z,472.00
2022-11-28T01:19:18.385Z,470.00
2022-11-28T01:19:48.438Z,469.00
2022-11-28T01:20:18.496Z,469.00
2022-11-28T01:20:48.541Z,470.00
2022-11-28T01:21:18.593Z,469.00
2022-11-28T01:21:48.649Z,467.00
2022-11-28T01:22:18.827Z,466.00
2022-11-28T01:22:48.718Z,465.00
2022-11-28T01:23:18.778Z,463.00
2022-11-28T01:23:48.832Z,463.00
2022-11-28T01:24:18.880Z,466.00
2022-11-28T01:24:48.940Z,468.00
2022-11-28T01:25:18.997Z,468.00
2022-11-28T01:25:49.045Z,468.00
2022-11-28T01:26:19.101Z,465.00
2022-11-28T01:26:49.154Z,466.00
2022-11-28T01:27:19.212Z,468.00
2022-11-28T01:27:49.259Z,467.00
2022-11-28T01:28:19.319Z,470.00
2022-11-28T01:28:49.369Z,469.00
2022-11-28T01:29:19.427Z,470.00
2022-11-28T01:29:49.467Z,471.00
2022-11-28T01:30:19.514Z,471.00
2022-11-28T01:30:49.571Z,470.00
2022-11-28T01:31:19.675Z,470.00
2022-11-28T01:31:49.853Z,469.00
2022-11-28T01:32:19.788Z,470.00
2022-11-28T01:32:49.838Z,471.00
2022-11-28T01:33:19.891Z,468.00
2022-11-28T01:33:49.951Z,467.00
2022-11-28T01:34:19.995Z,466.00
2022-11-28T01:34:50.035Z,467.00
2022-11-28T01:35:20.117Z,466.00
2022-11-28T01:35:50.173Z,467.00
2022-11-28T01:36:20.222Z,468.00
2022-11-28T01:36:50.275Z,467.00
2022-11-28T01:37:20.332Z,467.00
2022-11-28T01:37:50.497Z,465.00
2022-11-28T01:38:20.403Z,465.00
2022-11-28T01:38:50.451Z,465.00
2022-11-28T01:39:20.501Z,465.00
2022-11-28T01:39:50.566Z,463.00
2022-11-28T01:40:20.606Z,462.00
2022-11-28T01:40:50.663Z,464.00
2022-11-28T01:41:20.710Z,465.00
2022-11-28T01:41:50.764Z,464.00
2022-11-28T01:42:20.825Z,465.00
2022-11-28T01:42:50.874Z,466.00
2022-11-28T01:43:20.932Z,465.00
2022-11-28T01:43:50.986Z,464.00
2022-11-28T01:44:21.048Z,463.00
2022-11-28T01:44:51.098Z,461.00
2022-11-28T01:45:21.176Z,463.00
2022-11-28T01:45:51.227Z,464.00
2022-11-28T01:46:21.344Z,463.00
2022-11-28T01:46:51.418Z,464.00
2022-11-28T01:47:21.398Z,464.00
2022-11-28T01:47:51.444Z,463.00
2022-11-28T01:48:21.496Z,462.00
2022-11-28T01:48:51.547Z,461.00
2022-11-28T01:49:21.597Z,463.00
2022-11-28T01:49:51.646Z,462.00
2022-11-28T01:50:21.705Z,462.00
2022-11-28T01:50:51.753Z,461.00
2022-11-28T01:51:21.802Z,460.00
2022-11-28T01:51:51.849Z,460.00
2022-11-28T01:52:21.916Z,460.00
2022-11-28T01:52:51.967Z,460.00
2022-11-28T01:53:22.149Z,460.00
2022-11-28T01:53:52.054Z,461.00
2022-11-28T01:54:22.094Z,462.00
2022-11-28T01:54:52.147Z,461.00
2022-11-28T01:55:22.199Z,462.00
2022-11-28T01:55:52.251Z,462.00
2022-11-28T01:56:22.305Z,462.00
2022-11-28T01:56:52.349Z,461.00
2022-11-28T01:57:22.400Z,462.00
2022-11-28T01:57:52.455Z,460.00
2022-11-28T01:58:22.506Z,462.00
2022-11-28T01:58:52.556Z,462.00
2022-11-28T01:59:22.600Z,460.00
2022-11-28T01:59:52.656Z,461.00
2022-11-28T02:00:22.713Z,459.00
2022-11-28T02:00:52.848Z,461.00
2022-11-28T02:01:22.818Z,462.00
2022-11-28T02:01:52.887Z,462.00
2022-11-28T02:02:22.968Z,463.00
2022-11-28T02:02:52.890Z,465.00
2022-11-28T02:03:22.897Z,465.00
2022-11-28T02:03:52.899Z,466.00
2022-11-28T02:04:22.918Z,465.00
2022-11-28T02:04:52.910Z,464.00
2022-11-28T02:05:22.924Z,466.00
2022-11-28T02:05:52.936Z,464.00
2022-11-28T02:06:22.947Z,464.00
2022-11-28T02:06:52.953Z,464.00
2022-11-28T02:07:23.009Z,465.00
2022-11-28T02:07:53.074Z,465.00
2022-11-28T02:08:22.990Z,462.00
2022-11-28T02:08:53.126Z,466.00
2022-11-28T02:09:23.095Z,466.00
2022-11-28T02:09:53.102Z,466.00
2022-11-28T02:10:23.114Z,465.00
2022-11-28T02:10:53.120Z,466.00
2022-11-28T02:11:23.133Z,466.00
2022-11-28T02:11:53.149Z,466.00
2022-11-28T02:12:23.194Z,464.00
2022-11-28T02:12:53.242Z,463.00
2022-11-28T02:13:23.293Z,464.00
2022-11-28T02:13:53.354Z,464.00
2022-11-28T02:14:23.408Z,466.00
2022-11-28T02:14:53.465Z,467.00
2022-11-28T02:15:23.519Z,469.00
2022-11-28T02:15:53.628Z,469.00
2022-11-28T02:16:23.790Z,468.00
2022-11-28T02:16:53.704Z,465.00
2022-11-28T02:17:23.773Z,463.00
2022-11-28T02:17:53.808Z,464.00
2022-11-28T02:18:23.854Z,463.00
2022-11-28T02:18:53.904Z,464.00
2022-11-28T02:19:23.952Z,463.00
2022-11-28T02:19:54.003Z,465.00
2022-11-28T02:20:24.078Z,464.00
2022-11-28T02:20:54.155Z,466.00
2022-11-28T02:21:24.216Z,466.00
2022-11-28T02:21:54.257Z,467.00
2022-11-28T02:22:24.310Z,467.00
2022-11-28T02:22:54.355Z,466.00
2022-11-28T02:23:24.414Z,467.00
2022-11-28T02:23:54.466Z,466.00
2022-11-28T02:24:24.641Z,468.00
2022-11-28T02:24:54.539Z,467.00
2022-11-28T02:25:24.597Z,466.00
2022-11-28T02:25:54.657Z,463.00
2022-11-28T02:26:24.704Z,465.00
2022-11-28T02:26:54.755Z,464.00
2022-11-28T02:27:24.801Z,463.00
2022-11-28T02:27:54.847Z,462.00
2022-11-28T02:28:24.903Z,462.00
2022-11-28T02:28:54.960Z,460.00
2022-11-28T02:29:25.016Z,462.00
2022-11-28T02:29:55.074Z,462.00
2022-11-28T02:30:25.140Z,462.00
2022-11-28T02:30:55.196Z,462.00
2022-11-28T02:31:25.274Z,463.00
2022-11-28T02:31:55.387Z,462.00
2022-11-28T02:32:25.360Z,463.00
2022-11-28T02:32:55.400Z,462.00
2022-11-28T02:33:25.458Z,463.00
2022-11-28T02:33:55.513Z,466.00
2022-11-28T02:34:25.569Z,467.00
2022-11-28T02:34:55.620Z,467.00
2022-11-28T02:35:25.673Z,469.00
2022-11-28T02:35:55.735Z,467.00
2022-11-28T02:36:25.783Z,466.00
2022-11-28T02:36:55.841Z,467.00
2022-11-28T02:37:25.893Z,468.00
2022-11-28T02:37:55.956Z,468.00
2022-11-28T02:38:25.989Z,469.00
2022-11-28T02:38:56.044Z,469.00
2022-11-28T02:39:26.088Z,467.00
2022-11-28T02:39:56.255Z,465.00
2022-11-28T02:40:26.164Z,464.00
2022-11-28T02:40:56.199Z,466.00
2022-11-28T02:41:26.253Z,465.00
2022-11-28T02:41:56.300Z,465.00
2022-11-28T02:42:26.356Z,467.00
2022-11-28T02:42:56.410Z,467.00
2022-11-28T02:43:26.464Z,466.00
2022-11-28T02:44:00.316Z,466.00
2022-11-28T02:44:26.546Z,466.00
2022-11-28T02:44:56.605Z,466.00
2022-11-28T02:45:26.658Z,467.00
2022-11-28T02:45:56.721Z,467.00
2022-11-28T02:46:26.816Z,469.00
2022-11-28T02:46:56.987Z,469.00
2022-11-28T02:47:26.935Z,470.00
2022-11-28T02:47:56.993Z,469.00
2022-11-28T02:48:27.045Z,469.00
2022-11-28T02:48:57.097Z,469.00
2022-11-28T02:49:27.157Z,469.00
2022-11-28T02:49:57.194Z,468.00
2022-11-28T02:50:27.255Z,470.00
2022-11-28T02:50:57.309Z,470.00
2022-11-28T02:51:27.365Z,468.00
2022-11-28T02:51:57.420Z,467.00
2022-11-28T02:52:27.461Z,467.00
2022-11-28T02:52:57.514Z,466.00
2022-11-28T02:53:27.566Z,467.00
2022-11-28T02:53:57.613Z,467.00
2022-11-28T02:54:27.670Z,466.00
2022-11-28T02:54:57.722Z,466.00
2022-11-28T02:55:27.894Z,469.00
2022-11-28T02:55:57.794Z,467.00
2022-11-28T02:56:27.836Z,466.00
2022-11-28T02:56:57.893Z,466.00
2022-11-28T02:57:27.931Z,466.00
2022-11-28T02:57:57.983Z,464.00
2022-11-28T02:58:28.040Z,463.00
2022-11-28T02:58:58.090Z,463.00
2022-11-28T02:59:28.133Z,466.00
2022-11-28T02:59:58.186Z,462.00
2022-11-28T03:00:28.363Z,462.00
2022-11-28T03:00:58.453Z,464.00
2022-11-28T03:01:28.407Z,463.00
2022-11-28T03:01:58.501Z,463.00
2022-11-28T03:02:28.614Z,465.00
2022-11-28T03:02:58.623Z,464.00
2022-11-28T03:03:28.648Z,463.00
2022-11-28T03:03:58.649Z,464.00
2022-11-28T03:04:28.680Z,464.00
2022-11-28T03:04:58.687Z,464.00
2022-11-28T03:05:28.695Z,463.00
2022-11-28T03:05:58.705Z,461.00
2022-11-28T03:06:28.717Z,461.00
2022-11-28T03:06:58.735Z,463.00
2022-11-28T03:07:28.762Z,462.00
2022-11-28T03:07:58.931Z,464.00
2022-11-28T03:08:28.844Z,463.00
2022-11-28T03:08:58.854Z,466.00
2022-11-28T03:09:28.859Z,464.00
2022-11-28T03:09:58.863Z,466.00
2022-11-28T03:10:28.866Z,464.00
2022-11-28T03:10:58.992Z,464.00
2022-11-28T03:11:28.981Z,465.00
2022-11-28T03:11:59.002Z,465.00
2022-11-28T03:12:29.052Z,465.00
2022-11-28T03:12:59.117Z,467.00
2022-11-28T03:13:29.171Z,467.00
2022-11-28T03:13:59.220Z,467.00
2022-11-28T03:14:29.264Z,464.00
2022-11-28T03:14:59.312Z,461.00
2022-11-28T03:15:29.361Z,460.00
2022-11-28T03:15:59.504Z,460.00
2022-11-28T03:16:29.622Z,460.00
2022-11-28T03:16:59.446Z,459.00
2022-11-28T03:17:29.484Z,458.00
2022-11-28T03:17:59.543Z,459.00
2022-11-28T03:18:29.608Z,461.00
2022-11-28T03:18:59.650Z,461.00
2022-11-28T03:19:29.720Z,462.00
2022-11-28T03:19:59.765Z,464.00
2022-11-28T03:20:29.858Z,464.00
2022-11-28T03:20:59.931Z,462.00
2022-11-28T03:21:30.009Z,463.00
2022-11-28T03:22:00.124Z,465.00
2022-11-28T03:22:30.200Z,465.00
2022-11-28T03:23:00.248Z,466.00
2022-11-28T03:23:30.381Z,465.00
2022-11-28T03:24:00.418Z,465.00
2022-11-28T03:24:30.471Z,465.00
2022-11-28T03:25:00.569Z,465.00
2022-11-28T03:25:30.636Z,465.00
2022-11-28T03:26:00.713Z,464.00
2022-11-28T03:26:30.912Z,464.00
2022-11-28T03:27:00.872Z,465.00
2022-11-28T03:27:30.952Z,464.00
2022-11-28T03:28:01.018Z,465.00
2022-11-28T03:28:31.078Z,464.00
2022-11-28T03:29:01.121Z,464.00
2022-11-28T03:29:31.168Z,462.00
2022-11-28T03:30:01.217Z,463.00
2022-11-28T03:30:31.275Z,462.00
2022-11-28T03:31:01.375Z,463.00
2022-11-28T03:31:31.430Z,464.00
2022-11-28T03:32:01.439Z,463.00
2022-11-28T03:32:31.498Z,463.00
2022-11-28T03:33:01.543Z,463.00
2022-11-28T03:33:31.618Z,463.00
2022-11-28T03:34:01.669Z,462.00
2022-11-28T03:34:31.714Z,464.00
2022-11-28T03:35:01.783Z,464.00
2022-11-28T03:35:31.844Z,464.00
2022-11-28T03:36:01.894Z,461.00
2022-11-28T03:36:31.937Z,461.00
2022-11-28T03:37:01.992Z,459.00
2022-11-28T03:37:32.036Z,460.00
2022-11-28T03:38:02.089Z,461.00
2022-11-28T03:38:32.145Z,460.00
2022-11-28T03:39:02.188Z,461.00
2022-11-28T03:39:32.248Z,461.00
2022-11-28T03:40:02.347Z,462.00
2022-11-28T03:40:32.358Z,461.00
2022-11-28T03:41:02.399Z,461.00
2022-11-28T03:41:32.442Z,459.00
2022-11-28T03:42:02.619Z,457.00
2022-11-28T03:42:32.513Z,459.00
2022-11-28T03:43:02.578Z,458.00
2022-11-28T03:43:32.620Z,457.00
2022-11-28T03:44:02.673Z,459.00
2022-11-28T03:44:32.723Z,458.00
2022-11-28T03:45:02.797Z,461.00
2022-11-28T03:45:32.854Z,461.00
2022-11-28T03:46:02.903Z,461.00
2022-11-28T03:46:33.093Z,461.00
2022-11-28T03:47:03.062Z,461.00
2022-11-28T03:47:33.091Z,463.00
2022-11-28T03:48:03.148Z,463.00
2022-11-28T03:48:33.190Z,465.00
2022-11-28T03:49:03.273Z,464.00
2022-11-28T03:49:33.330Z,464.00
2022-11-28T03:50:03.383Z,464.00
2022-11-28T03:50:33.440Z,463.00
2022-11-28T03:51:03.484Z,461.00
2022-11-28T03:51:33.540Z,460.00
2022-11-28T03:52:03.605Z,458.00
2022-11-28T03:52:33.660Z,458.00
2022-11-28T03:53:03.712Z,457.00
2022-11-28T03:53:33.757Z,460.00
2022-11-28T03:54:03.816Z,458.00
2022-11-28T03:54:33.871Z,458.00
2022-11-28T03:55:03.942Z,459.00
2022-11-28T03:55:34.105Z,463.00
2022-11-28T03:56:04.116Z,462.00
2022-11-28T03:56:34.095Z,462.00
2022-11-28T03:57:04.126Z,463.00
2022-11-28T03:57:34.301Z,463.00
2022-11-28T03:58:04.192Z,464.00
2022-11-28T03:58:34.251Z,462.00
2022-11-28T03:59:04.304Z,462.00
2022-11-28T03:59:34.361Z,462.00
2022-11-28T04:00:04.413Z,460.00
2022-11-28T04:00:34.457Z,460.00
2022-11-28T04:01:04.542Z,461.00
2022-11-28T04:01:34.638Z,460.00
2022-11-28T04:02:04.678Z,458.00
2022-11-28T04:02:34.733Z,459.00
2022-11-28T04:03:04.817Z,458.00
2022-11-28T04:03:34.836Z,458.00
2022-11-28T04:04:04.851Z,458.00
2022-11-28T04:04:34.854Z,456.00
2022-11-28T04:05:04.868Z,456.00
2022-11-28T04:05:34.888Z,458.00
2022-11-28T04:06:04.891Z,459.00
2022-11-28T04:06:34.891Z,461.00
2022-11-28T04:07:04.901Z,462.00
2022-11-28T04:07:35.012Z,461.00
2022-11-28T04:08:04.976Z,463.00
2022-11-28T04:08:34.982Z,462.00
2022-11-28T04:09:04.983Z,464.00
2022-11-28T04:09:34.985Z,464.00
2022-11-28T04:10:05.004Z,463.00
2022-11-28T04:10:35.015Z,463.00
2022-11-28T04:11:05.016Z,460.00
2022-11-28T04:11:35.019Z,457.00
2022-11-28T04:12:05.051Z,460.00
2022-11-28T04:12:35.100Z,460.00
2022-11-28T04:13:05.270Z,461.00
2022-11-28T04:13:35.166Z,460.00
2022-11-28T04:14:05.213Z,460.00
2022-11-28T04:14:35.255Z,460.00
2022-11-28T04:15:05.312Z,460.00
2022-11-28T04:15:35.381Z,460.00
2022-11-28T04:16:05.540Z,460.00
2022-11-28T04:16:35.545Z,459.00
2022-11-28T04:17:05.496Z,460.00
2022-11-28T04:17:35.555Z,460.00
2022-11-28T04:18:05.617Z,460.00
2022-11-28T04:18:35.664Z,458.00
2022-11-28T04:19:05.722Z,457.00
2022-11-28T04:19:35.768Z,457.00
2022-11-28T04:20:05.827Z,455.00
2022-11-28T04:20:35.877Z,456.00
2022-11-28T04:21:05.933Z,456.00
2022-11-28T04:21:35.979Z,458.00
2022-11-28T04:22:06.029Z,459.00
2022-11-28T04:22:36.079Z,459.00
2022-11-28T04:23:06.125Z,459.00
2022-11-28T04:23:36.207Z,459.00
2022-11-28T04:24:06.239Z,460.00
2022-11-28T04:24:36.295Z,457.00
2022-11-28T04:25:06.342Z,456.00
2022-11-28T04:25:36.401Z,458.00
2022-11-28T04:26:06.455Z,457.00
2022-11-28T04:26:36.506Z,458.00
2022-11-28T04:27:06.558Z,458.00
2022-11-28T04:27:36.617Z,460.00
2022-11-28T04:28:06.673Z,461.00
2022-11-28T04:28:36.852Z,462.00
2022-11-28T04:29:06.754Z,463.00
2022-11-28T04:29:36.802Z,463.00
2022-11-28T04:30:06.854Z,463.00
2022-11-28T04:30:36.924Z,464.00
2022-11-28T04:31:07.091Z,465.00
2022-11-28T04:31:37.135Z,466.00
2022-11-28T04:32:07.075Z,464.00
2022-11-28T04:32:37.154Z,465.00
2022-11-28T04:33:07.181Z,464.00
2022-11-28T04:33:37.237Z,464.00
2022-11-28T04:34:07.280Z,462.00
2022-11-28T04:34:37.341Z,464.00
2022-11-28T04:35:07.392Z,462.00
2022-11-28T04:35:37.455Z,462.00
2022-11-28T04:36:07.504Z,462.00
2022-11-28T04:36:37.552Z,464.00
2022-11-28T04:37:09.888Z,465.00
2022-11-28T04:37:37.626Z,465.00
2022-11-28T04:38:07.686Z,464.00
2022-11-28T04:38:37.739Z,463.00
2022-11-28T04:39:07.793Z,462.00
2022-11-28T04:39:37.850Z,462.00
2022-11-28T04:40:07.901Z,462.00
2022-11-28T04:40:37.958Z,463.00
2022-11-28T04:41:08.016Z,462.00
2022-11-28T04:41:38.063Z,461.00
2022-11-28T04:42:08.120Z,460.00
2022-11-28T04:42:38.160Z,460.00
2022-11-28T04:43:08.235Z,461.00
2022-11-28T04:43:38.283Z,462.00
2022-11-28T04:44:08.457Z,460.00
2022-11-28T04:44:38.361Z,459.00
2022-11-28T04:45:08.411Z,461.00
2022-11-28T04:45:38.537Z,461.00
2022-11-28T04:46:08.714Z,461.00
2022-11-28T04:46:38.664Z,463.00
2022-11-28T04:47:08.698Z,463.00
2022-11-28T04:47:38.742Z,463.00
2022-11-28T04:48:08.801Z,465.00
2022-11-28T04:48:38.850Z,466.00
2022-11-28T04:49:08.996Z,466.00
2022-11-28T04:49:39.237Z,465.00
2022-11-28T04:50:09.060Z,466.00
2022-11-28T04:50:39.113Z,466.00
2022-11-28T04:51:09.168Z,466.00
2022-11-28T04:51:39.594Z,466.00
2022-11-28T04:52:09.306Z,466.00
2022-11-28T04:52:39.352Z,465.00
2022-11-28T04:53:09.413Z,465.00
2022-11-28T04:53:39.800Z,465.00
2022-11-28T04:54:09.648Z,465.00
2022-11-28T04:54:39.889Z,463.00
2022-11-28T04:55:09.606Z,462.00
2022-11-28T04:55:39.670Z,461.00
2022-11-28T04:56:09.725Z,461.00
2022-11-28T04:56:39.772Z,464.00
2022-11-28T04:57:09.820Z,464.00
2022-11-28T04:57:39.865Z,462.00
2022-11-28T04:58:09.939Z,463.00
2022-11-28T04:58:39.991Z,462.00
2022-11-28T04:59:10.155Z,464.00
2022-11-28T04:59:40.068Z,462.00
2022-11-28T05:00:10.152Z,464.00
2022-11-28T05:00:40.307Z,463.00
2022-11-28T05:01:10.301Z,463.00
2022-11-28T05:01:40.329Z,466.00
2022-11-28T05:02:10.385Z,463.00
2022-11-28T05:02:40.386Z,463.00
2022-11-28T05:03:10.400Z,462.00
2022-11-28T05:03:42.802Z,461.00
2022-11-28T05:04:10.501Z,463.00
2022-11-28T05:04:40.837Z,464.00
2022-11-28T05:05:10.528Z,464.00
2022-11-28T05:05:40.543Z,464.00
2022-11-28T05:06:10.548Z,460.00
2022-11-28T05:06:40.553Z,459.00
2022-11-28T05:07:10.560Z,460.00
2022-11-28T05:07:40.652Z,460.00
2022-11-28T05:08:10.601Z,459.00
2022-11-28T05:08:40.602Z,460.00
2022-11-28T05:09:10.605Z,458.00
2022-11-28T05:09:40.616Z,459.00
2022-11-28T05:10:10.623Z,460.00
2022-11-28T05:10:40.630Z,459.00
2022-11-28T05:11:10.635Z,457.00
2022-11-28T05:11:40.644Z,461.00
2022-11-28T05:12:10.685Z,460.00
2022-11-28T05:12:40.745Z,463.00
2022-11-28T05:13:10.809Z,464.00
2022-11-28T05:13:40.858Z,464.00
2022-11-28T05:14:10.906Z,465.00
2022-11-28T05:14:41.496Z,466.00
2022-11-28T05:15:11.034Z,464.00
2022-11-28T05:15:41.090Z,463.00
2022-11-28T05:16:11.182Z,465.00
2022-11-28T05:16:41.326Z,466.00
2022-11-28T05:17:11.265Z,465.00
2022-11-28T05:17:42.580Z,467.00
2022-11-28T05:18:11.330Z,468.00
2022-11-28T05:18:41.366Z,470.00
2022-11-28T05:19:11.422Z,472.00
2022-11-28T05:19:41.454Z,476.00
2022-11-28T05:20:11.518Z,476.00
2022-11-28T05:20:41.574Z,476.00
2022-11-28T05:21:11.630Z,477.00
2022-11-28T05:21:41.666Z,477.00
2022-11-28T05:22:11.717Z,476.00
2022-11-28T05:22:41.765Z,477.00
2022-11-28T05:23:11.825Z,476.00
2022-11-28T05:23:41.870Z,476.00
2022-11-28T05:24:11.943Z,476.00
2022-11-28T05:24:42.006Z,474.00
2022-11-28T05:25:12.065Z,475.00
2022-11-28T05:25:42.109Z,476.00
2022-11-28T05:26:12.157Z,479.00
2022-11-28T05:26:42.207Z,478.00
2022-11-28T05:27:12.273Z,478.00
2022-11-28T05:27:42.318Z,478.00
2022-11-28T05:28:12.366Z,477.00
2022-11-28T05:28:42.418Z,475.00
2022-11-28T05:29:12.469Z,475.00
2022-11-28T05:29:42.524Z,474.00
2022-11-28T05:30:12.687Z,477.00
2022-11-28T05:30:42.590Z,473.00
2022-11-28T05:31:12.704Z,475.00
2022-11-28T05:31:42.899Z,478.00
2022-11-28T05:32:12.855Z,480.00
2022-11-28T05:32:42.907Z,480.00
2022-11-28T05:33:12.961Z,479.00
2022-11-28T05:33:43.008Z,482.00
2022-11-28T05:34:13.053Z,482.00
2022-11-28T05:34:43.284Z,481.00
2022-11-28T05:35:13.168Z,483.00
2022-11-28T05:35:43.245Z,484.00
2022-11-28T05:36:13.736Z,487.00
2022-11-28T05:36:43.374Z,489.00
2022-11-28T05:37:13.427Z,492.00
2022-11-28T05:37:43.472Z,491.00
2022-11-28T05:38:13.858Z,490.00
2022-11-28T05:38:43.534Z,492.00
2022-11-28T05:39:13.579Z,491.00
2022-11-28T05:39:43.986Z,490.00
2022-11-28T05:40:13.722Z,491.00
2022-11-28T05:40:43.777Z,492.00
2022-11-28T05:41:13.822Z,494.00
2022-11-28T05:41:43.872Z,496.00
2022-11-28T05:42:13.922Z,498.00
2022-11-28T05:42:43.978Z,499.00
2022-11-28T05:43:14.028Z,500.00
2022-11-28T05:43:44.083Z,502.00
2022-11-28T05:44:14.127Z,508.00
2022-11-28T05:44:44.190Z,509.00
2022-11-28T05:45:14.247Z,507.00
2022-11-28T05:45:44.500Z,507.00
2022-11-28T05:46:14.432Z,507.00
2022-11-28T05:46:44.494Z,511.00
2022-11-28T05:47:14.540Z,512.00
2022-11-28T05:47:44.610Z,514.00
2022-11-28T05:48:14.660Z,514.00
2022-11-28T05:48:44.706Z,515.00
2022-11-28T05:49:14.771Z,516.00
2022-11-28T05:49:45.233Z,516.00
2022-11-28T05:50:14.932Z,516.00
2022-11-28T05:50:44.980Z,517.00
2022-11-28T05:51:15.054Z,518.00
2022-11-28T05:51:45.131Z,518.00
2022-11-28T05:52:15.182Z,521.00
2022-11-28T05:52:45.237Z,522.00
2022-11-28T05:53:15.300Z,527.00
2022-11-28T05:53:45.355Z,529.00
2022-11-28T05:54:15.408Z,529.00
2022-11-28T05:54:45.581Z,526.00
2022-11-28T05:55:15.536Z,525.00
2022-11-28T05:55:45.578Z,525.00
2022-11-28T05:56:15.627Z,527.00
2022-11-28T05:56:45.667Z,526.00
2022-11-28T05:57:15.715Z,530.00
2022-11-28T05:57:45.802Z,545.00
2022-11-28T05:58:15.848Z,554.00
2022-11-28T05:58:45.903Z,561.00
2022-11-28T05:59:15.968Z,570.00
2022-11-28T05:59:46.138Z,575.00
2022-11-28T06:00:16.024Z,580.00
2022-11-28T06:00:46.067Z,582.00
2022-11-28T06:01:16.243Z,587.00
2022-11-28T06:01:46.151Z,591.00
2022-11-28T06:02:16.230Z,594.00
2022-11-28T06:02:46.131Z,593.00
2022-11-28T06:03:16.144Z,592.00
2022-11-28T06:03:46.162Z,594.00
2022-11-28T06:04:16.208Z,597.00
2022-11-28T06:04:46.392Z,599.00
2022-11-28T06:05:41.179Z,600.00
2022-11-28T06:05:46.319Z,603.00
2022-11-28T06:06:16.327Z,607.00
2022-11-28T06:06:46.348Z,610.00
2022-11-28T06:07:16.435Z,613.00
2022-11-28T06:07:46.448Z,618.00
2022-11-28T06:08:16.449Z,619.00
2022-11-28T06:08:46.463Z,619.00
2022-11-28T06:09:16.472Z,621.00
2022-11-28T06:09:46.481Z,625.00
2022-11-28T06:10:16.487Z,631.00
2022-11-28T06:10:46.491Z,636.00
2022-11-28T06:11:16.509Z,637.00
2022-11-28T06:11:46.554Z,635.00
2022-11-28T06:12:16.573Z,637.00
2022-11-28T06:12:46.624Z,638.00
2022-11-28T06:13:16.674Z,641.00
2022-11-28T06:13:46.732Z,646.00
2022-11-28T06:14:16.803Z,649.00
2022-11-28T06:14:46.839Z,651.00